Time;durP1;ratioP1;P1;durP2;ratioP2;P2;SDS_P1;SDS_P2;PMS_P1;PMS_P2;Temp;Humidity;BMP_temperature;BMP_pressure;BME280_temperature;BME280_humidity;BME280_pressure;Samples;Min_cycle;Max_cycle;Signal;HPM_P1;HPM_P2
2021/09/10 00:00:16;;;;;;;0.10;0.00;;;;;;;;;;10515491;28;20065;-66
2021/09/10 00:05:19;;;;;;;0.00;0.00;;;;;;;;;;10512049;28;20403;-64
2021/09/10 00:10:22;;;;;;;0.00;0.00;;;;;;;;;;10510505;28;20044;-66
2021/09/10 00:15:32;;;;;;;0.05;0.00;;;;;;;;;;10512291;28;20119;-66
2021/09/10 00:20:35;;;;;;;0.00;0.00;;;;;;;;;;10512013;28;20645;-66
2021/09/10 00:25:39;;;;;;;0.10;0.00;;;;;;;;;;10509892;28;20150;-66
2021/09/10 00:30:43;;;;;;;0.00;0.00;;;;;;;;;;10496062;28;20051;-65
2021/09/10 00:35:46;;;;;;;0.00;0.00;;;;;;;;;;10512478;28;20040;-65
2021/09/10 00:40:49;;;;;;;0.00;0.00;;;;;;;;;;10502577;28;20113;-66
2021/09/10 00:45:56;;;;;;;0.00;0.00;;;;;;;;;;10519877;28;20071;-67
2021/09/10 00:50:59;;;;;;;0.00;0.00;;;;;;;;;;10520341;28;20032;-65
2021/09/10 00:56:03;;;;;;;0.00;0.00;;;;;;;;;;10503629;28;20113;-66
2021/09/10 01:01:08;;;;;;;0.00;0.00;;;;;;;;;;10503273;28;20066;-65
2021/09/10 01:06:13;;;;;;;0.00;0.00;;;;;;;;;;10503623;28;20082;-66
2021/09/10 01:11:16;;;;;;;0.00;0.00;;;;;;;;;;10518255;28;20047;-67
2021/09/10 01:16:39;;;;;;;0.00;0.00;;;;;;;;;;10533106;28;20048;-66
2021/09/10 01:21:42;;;;;;;0.00;0.00;;;;;;;;;;10519440;28;20119;-65
2021/09/10 01:26:46;;;;;;;0.00;0.00;;;;;;;;;;10520389;28;20436;-66
2021/09/10 01:31:50;;;;;;;0.00;0.00;;;;;;;;;;10519330;28;20050;-67
2021/09/10 01:36:53;;;;;;;0.00;0.00;;;;;;;;;;10519305;28;20130;-65
2021/09/10 01:41:57;;;;;;;0.00;0.00;;;;;;;;;;10483862;28;20062;-67
2021/09/10 01:47:00;;;;;;;0.00;0.00;;;;;;;;;;10475118;28;20066;-66
2021/09/10 01:52:04;;;;;;;0.00;0.00;;;;;;;;;;10475849;28;20116;-66
2021/09/10 01:57:08;;;;;;;0.00;0.00;;;;;;;;;;10476203;28;20174;-67
2021/09/10 02:02:12;;;;;;;0.00;0.00;;;;;;;;;;10476758;28;20441;-66
2021/09/10 02:07:15;;;;;;;0.20;0.00;;;;;;;;;;10474583;28;20049;-66
2021/09/10 02:12:20;;;;;;;0.00;0.00;;;;;;;;;;10475158;28;20066;-66
2021/09/10 02:17:22;;;;;;;0.00;0.00;;;;;;;;;;10473961;28;20071;-66
2021/09/10 02:22:26;;;;;;;0.00;0.00;;;;;;;;;;10474221;28;20101;-66
2021/09/10 02:27:30;;;;;;;0.00;0.00;;;;;;;;;;10477202;28;20391;-66
2021/09/10 02:32:34;;;;;;;0.00;0.00;;;;;;;;;;10473087;28;20134;-66
2021/09/10 02:37:37;;;;;;;0.00;0.00;;;;;;;;;;10476035;28;20067;-66
2021/09/10 02:42:42;;;;;;;0.10;0.08;;;;;;;;;;10471548;28;20081;-66
2021/09/10 02:47:45;;;;;;;0.00;0.00;;;;;;;;;;10471100;28;20159;-66
2021/09/10 02:52:49;;;;;;;0.00;0.00;;;;;;;;;;10471528;28;20040;-66
2021/09/10 02:57:54;;;;;;;0.00;0.00;;;;;;;;;;10473832;28;20515;-66
2021/09/10 03:02:57;;;;;;;0.00;0.00;;;;;;;;;;10473215;28;20538;-66
2021/09/10 03:08:00;;;;;;;0.00;0.00;;;;;;;;;;10467180;28;20049;-66
2021/09/10 03:13:05;;;;;;;0.10;0.00;;;;;;;;;;10472548;28;20037;-66
2021/09/10 03:18:08;;;;;;;0.00;0.00;;;;;;;;;;10471219;28;20052;-64
2021/09/10 03:23:10;;;;;;;0.00;0.00;;;;;;;;;;10469845;28;20479;-66
2021/09/10 03:28:15;;;;;;;0.00;0.00;;;;;;;;;;10472622;28;20040;-64
2021/09/10 03:33:18;;;;;;;0.00;0.00;;;;;;;;;;10470884;28;20044;-65
2021/09/10 03:38:21;;;;;;;0.00;0.00;;;;;;;;;;10474889;28;20040;-65
2021/09/10 03:43:25;;;;;;;0.00;0.00;;;;;;;;;;10511191;28;20048;-65
2021/09/10 03:48:29;;;;;;;0.00;0.00;;;;;;;;;;10514007;28;20036;-65
2021/09/10 03:53:32;;;;;;;0.00;0.00;;;;;;;;;;10507461;28;20093;-64
2021/09/10 03:58:37;;;;;;;0.00;0.00;;;;;;;;;;10512814;28;20056;-64
2021/09/10 04:03:41;;;;;;;0.00;0.00;;;;;;;;;;10513439;28;20032;-65
2021/09/10 04:08:48;;;;;;;0.00;0.00;;;;;;;;;;10512186;28;20040;-64
2021/09/10 04:13:53;;;;;;;0.00;0.00;;;;;;;;;;10511167;28;20123;-65
2021/09/10 04:18:56;;;;;;;0.00;0.00;;;;;;;;;;10515208;28;20480;-65
2021/09/10 04:23:59;;;;;;;0.00;0.00;;;;;;;;;;10511557;28;20044;-64
2021/09/10 04:29:04;;;;;;;0.00;0.00;;;;;;;;;;10502919;28;20059;-64
2021/09/10 04:34:07;;;;;;;0.00;0.00;;;;;;;;;;10512426;28;20375;-65
2021/09/10 04:39:09;;;;;;;0.00;0.00;;;;;;;;;;10513312;28;20052;-64
2021/09/10 04:44:14;;;;;;;0.00;0.00;;;;;;;;;;10513901;28;20040;-65
2021/09/10 04:49:16;;;;;;;0.00;0.00;;;;;;;;;;10514786;28;20052;-69
2021/09/10 04:54:19;;;;;;;0.00;0.00;;;;;;;;;;10495611;28;20044;-67
2021/09/10 04:59:23;;;;;;;0.00;0.00;;;;;;;;;;10510662;28;20043;-64
2021/09/10 05:04:26;;;;;;;0.00;0.00;;;;;;;;;;10499022;28;20048;-65
2021/09/10 05:09:29;;;;;;;0.00;0.00;;;;;;;;;;10514365;28;20460;-64
2021/09/10 05:14:33;;;;;;;0.00;0.00;;;;;;;;;;10509499;28;20044;-63
2021/09/10 05:19:36;;;;;;;0.00;0.00;;;;;;;;;;10512282;28;20666;-63
2021/09/10 05:24:39;;;;;;;0.00;0.00;;;;;;;;;;10497882;28;20806;-64
2021/09/10 05:29:43;;;;;;;0.00;0.00;;;;;;;;;;10517724;28;20046;-64
2021/09/10 05:34:46;;;;;;;0.00;0.00;;;;;;;;;;10504344;28;20059;-64
2021/09/10 05:39:49;;;;;;;0.00;0.00;;;;;;;;;;10518555;28;20054;-64
2021/09/10 05:44:53;;;;;;;0.00;0.00;;;;;;;;;;10516972;28;20044;-64
2021/09/10 05:49:56;;;;;;;0.00;0.00;;;;;;;;;;10517932;28;20414;-63
2021/09/10 05:54:58;;;;;;;0.00;0.00;;;;;;;;;;10503232;28;20052;-64
2021/09/10 06:00:03;;;;;;;0.20;0.00;;;;;;;;;;10496709;28;20406;-64
2021/09/10 06:05:12;;;;;;;;;;;;;;;;;;10514121;28;20171;-64
2021/09/10 06:10:18;;;;;;;0.00;0.00;;;;;;;;;;10517376;28;19934;-64
2021/09/10 06:15:22;;;;;;;0.00;0.00;;;;;;;;;;10515460;28;20616;-64
2021/09/10 06:20:25;;;;;;;0.00;0.00;;;;;;;;;;10515795;28;20055;-64
2021/09/10 06:25:27;;;;;;;0.00;0.00;;;;;;;;;;10515350;28;20127;-64
2021/09/10 06:30:31;;;;;;;0.00;0.00;;;;;;;;;;10517112;28;20745;-64
2021/09/10 06:35:34;;;;;;;0.00;0.00;;;;;;;;;;10510661;28;20036;-64
2021/09/10 06:40:37;;;;;;;0.00;0.00;;;;;;;;;;10513744;28;20087;-64
2021/09/10 06:45:43;;;;;;;0.00;0.00;;;;;;;;;;10494688;28;20516;-64
2021/09/10 06:50:46;;;;;;;0.00;0.00;;;;;;;;;;10515901;28;20418;-64
2021/09/10 06:55:49;;;;;;;0.00;0.00;;;;;;;;;;10513611;28;20036;-64
2021/09/10 07:00:53;;;;;;;0.00;0.00;;;;;;;;;;10513240;28;20051;-64
2021/09/10 07:05:56;;;;;;;0.00;0.00;;;;;;;;;;10512574;28;20047;-64
2021/09/10 07:11:01;;;;;;;0.00;0.00;;;;;;;;;;10513142;28;20048;-64
2021/09/10 07:16:06;;;;;;;0.00;0.00;;;;;;;;;;10512949;28;20050;-64
2021/09/10 07:21:09;;;;;;;0.00;0.00;;;;;;;;;;10513259;28;20241;-64
2021/09/10 07:26:12;;;;;;;0.00;0.00;;;;;;;;;;10512439;28;20051;-64
2021/09/10 07:31:16;;;;;;;0.00;0.00;;;;;;;;;;10512948;28;20516;-64
2021/09/10 07:36:20;;;;;;;0.00;0.00;;;;;;;;;;10499574;28;20056;-64
2021/09/10 07:41:23;;;;;;;0.00;0.00;;;;;;;;;;10512678;28;20560;-64
2021/09/10 07:46:27;;;;;;;0.00;0.00;;;;;;;;;;10512912;28;20460;-64
2021/09/10 07:51:29;;;;;;;0.00;0.00;;;;;;;;;;10527780;28;20490;-64
2021/09/10 07:56:32;;;;;;;0.00;0.00;;;;;;;;;;10510949;28;20406;-64
2021/09/10 08:01:36;;;;;;;0.00;0.00;;;;;;;;;;10515789;28;20052;-64
2021/09/10 08:06:40;;;;;;;0.00;0.00;;;;;;;;;;10508210;28;20048;-64
2021/09/10 08:11:42;;;;;;;0.00;0.00;;;;;;;;;;10508728;28;20040;-64
2021/09/10 08:16:47;;;;;;;0.00;0.00;;;;;;;;;;10512771;28;20096;-64
2021/09/10 08:21:54;;;;;;;0.00;0.00;;;;;;;;;;10498015;28;20052;-63
2021/09/10 08:26:57;;;;;;;0.00;0.00;;;;;;;;;;10510294;28;20051;-64
2021/09/10 08:32:08;;;;;;;0.00;0.00;;;;;;;;;;10513643;28;20044;-64
2021/09/10 08:37:10;;;;;;;0.00;0.00;;;;;;;;;;10511810;28;20541;-64
2021/09/10 08:42:13;;;;;;;0.00;0.00;;;;;;;;;;10510536;28;20090;-64
2021/09/10 08:47:17;;;;;;;0.00;0.00;;;;;;;;;;10493668;28;20052;-64
2021/09/10 08:52:21;;;;;;;0.00;0.00;;;;;;;;;;10510920;28;20510;-64
2021/09/10 08:57:26;;;;;;;0.00;0.00;;;;;;;;;;10495948;28;20052;-64
2021/09/10 09:02:30;;;;;;;0.00;0.00;;;;;;;;;;10519675;28;20414;-63
2021/09/10 09:07:33;;;;;;;0.00;0.00;;;;;;;;;;10520602;28;20028;-63
2021/09/10 09:12:36;;;;;;;0.00;0.00;;;;;;;;;;10514547;28;20056;-62
2021/09/10 09:17:41;;;;;;;0.00;0.00;;;;;;;;;;10506258;28;20044;-63
2021/09/10 09:22:54;;;;;;;0.00;0.00;;;;;;;;;;10518949;28;20450;-63
2021/09/10 09:27:57;;;;;;;0.00;0.00;;;;;;;;;;10519000;28;20035;-63
2021/09/10 09:33:01;;;;;;;0.00;0.00;;;;;;;;;;10518460;28;20050;-63
2021/09/10 09:38:12;;;;;;;0.00;0.00;;;;;;;;;;10519264;28;20044;-63
2021/09/10 09:43:16;;;;;;;0.00;0.00;;;;;;;;;;10516913;28;20300;-63
2021/09/10 09:48:21;;;;;;;0.00;0.00;;;;;;;;;;10516179;28;20126;-63
2021/09/10 09:53:23;;;;;;;0.00;0.00;;;;;;;;;;10518435;28;20044;-63
2021/09/10 09:58:26;;;;;;;0.00;0.00;;;;;;;;;;10517081;28;20059;-63
2021/09/10 10:03:31;;;;;;;0.00;0.00;;;;;;;;;;10520698;28;20478;-63
2021/09/10 10:08:37;;;;;;;0.38;0.00;;;;;;;;;;10517993;28;20056;-62
2021/09/10 10:13:40;;;;;;;0.00;0.00;;;;;;;;;;10514238;28;20438;-63
2021/09/10 10:18:45;;;;;;;0.00;0.00;;;;;;;;;;10516774;28;20051;-63
2021/09/10 10:23:55;;;;;;;0.00;0.00;;;;;;;;;;10517939;28;20489;-63
2021/09/10 10:29:03;;;;;;;0.00;0.00;;;;;;;;;;10516785;28;20058;-63
2021/09/10 10:34:07;;;;;;;0.00;0.00;;;;;;;;;;10515368;28;20376;-63
2021/09/10 10:39:18;;;;;;;0.00;0.00;;;;;;;;;;10517292;28;20052;-63
2021/09/10 10:44:40;;;;;;;0.00;0.00;;;;;;;;;;10515137;28;20209;-63
2021/09/10 10:49:44;;;;;;;0.00;0.00;;;;;;;;;;10513018;28;20044;-63
2021/09/10 10:54:47;;;;;;;0.00;0.00;;;;;;;;;;10501627;28;20055;-63
2021/09/10 10:59:50;;;;;;;0.10;0.00;;;;;;;;;;10515706;28;20494;-63
2021/09/10 11:04:59;;;;;;;0.00;0.00;;;;;;;;;;10518089;28;20054;-63
2021/09/10 11:10:02;;;;;;;0.00;0.00;;;;;;;;;;10513755;28;20050;-63
2021/09/10 11:15:16;;;;;;;0.00;0.00;;;;;;;;;;10514790;28;20717;-63
2021/09/10 11:20:26;;;;;;;0.00;0.00;;;;;;;;;;10513566;28;20669;-63
2021/09/10 11:25:29;;;;;;;0.00;0.00;;;;;;;;;;10511635;28;20044;-63
2021/09/10 11:30:31;;;;;;;0.00;0.00;;;;;;;;;;10512128;28;20054;-63
2021/09/10 11:35:38;;;;;;;0.00;0.00;;;;;;;;;;10513581;28;20046;-63
2021/09/10 11:40:41;;;;;;;0.00;0.00;;;;;;;;;;10513921;28;20059;-63
2021/09/10 11:45:46;;;;;;;0.00;0.00;;;;;;;;;;10512710;28;20040;-63
2021/09/10 11:50:53;;;;;;;0.00;0.00;;;;;;;;;;10513401;28;20043;-63
2021/09/10 11:55:58;;;;;;;0.00;0.00;;;;;;;;;;10510911;28;20493;-63
2021/09/10 12:01:19;;;;;;;0.00;0.00;;;;;;;;;;10515767;28;20459;-64
2021/09/10 12:06:27;;;;;;;0.00;0.00;;;;;;;;;;10511954;28;20040;-63
2021/09/10 12:11:30;;;;;;;0.00;0.00;;;;;;;;;;10512844;28;20044;-63
2021/09/10 12:16:33;;;;;;;0.00;0.00;;;;;;;;;;10513871;28;20032;-63
2021/09/10 12:21:38;;;;;;;0.00;0.00;;;;;;;;;;10513201;28;20067;-63
2021/09/10 12:26:49;;;;;;;0.00;0.00;;;;;;;;;;10510780;28;20474;-63
2021/09/10 12:31:53;;;;;;;0.00;0.00;;;;;;;;;;10496087;28;20055;-63
2021/09/10 12:36:58;;;;;;;0.00;0.00;;;;;;;;;;10520322;28;20081;-63
2021/09/10 12:42:00;;;;;;;0.00;0.00;;;;;;;;;;10520253;28;20043;-63
2021/09/10 12:47:04;;;;;;;0.00;0.00;;;;;;;;;;10521100;28;20489;-63
2021/09/10 12:52:08;;;;;;;0.00;0.00;;;;;;;;;;10520777;28;20501;-63
2021/09/10 12:57:12;;;;;;;0.00;0.00;;;;;;;;;;10518554;28;20036;-62
2021/09/10 13:02:16;;;;;;;0.00;0.00;;;;;;;;;;10519352;28;20047;-63
2021/09/10 13:07:21;;;;;;;0.00;0.00;;;;;;;;;;10521532;28;20410;-63
2021/09/10 13:12:24;;;;;;;0.00;0.00;;;;;;;;;;10520580;28;20062;-63
2021/09/10 13:17:27;;;;;;;0.00;0.00;;;;;;;;;;10516724;28;20374;-64
2021/09/10 13:22:31;;;;;;;0.20;0.00;;;;;;;;;;10517949;28;20064;-63
2021/09/10 13:27:34;;;;;;;0.00;0.00;;;;;;;;;;10518609;28;20540;-64
2021/09/10 13:32:39;;;;;;;0.00;0.00;;;;;;;;;;10513839;28;20047;-62
2021/09/10 13:37:43;;;;;;;0.00;0.00;;;;;;;;;;10516470;28;20050;-63
2021/09/10 13:42:49;;;;;;;0.17;0.00;;;;;;;;;;10514608;28;20059;-62
2021/09/10 13:48:03;;;;;;;0.00;0.00;;;;;;;;;;10515451;28;20478;-63
2021/09/10 13:53:08;;;;;;;0.00;0.00;;;;;;;;;;10517027;28;20371;-64
2021/09/10 13:58:12;;;;;;;0.00;0.00;;;;;;;;;;10513936;28;20465;-64
2021/09/10 14:03:16;;;;;;;0.00;0.00;;;;;;;;;;10495165;28;20251;-64
2021/09/10 14:08:20;;;;;;;0.00;0.00;;;;;;;;;;10500400;28;20047;-64
2021/09/10 14:13:23;;;;;;;0.00;0.00;;;;;;;;;;10513647;28;20040;-64
2021/09/10 14:18:28;;;;;;;0.00;0.00;;;;;;;;;;10499029;28;20537;-64
2021/09/10 14:23:35;;;;;;;0.00;0.00;;;;;;;;;;10529371;27;20108;-64
2021/09/10 14:28:38;;;;;;;0.00;0.00;;;;;;;;;;10514099;28;20401;-64
2021/09/10 14:33:40;;;;;;;0.00;0.00;;;;;;;;;;10511956;28;20398;-64
2021/09/10 14:38:45;;;;;;;0.00;0.00;;;;;;;;;;10495888;28;20048;-64
2021/09/10 14:43:48;;;;;;;0.00;0.00;;;;;;;;;;10512227;28;20395;-64
2021/09/10 14:48:52;;;;;;;0.00;0.00;;;;;;;;;;10512860;28;20046;-64
2021/09/10 14:53:56;;;;;;;0.00;0.00;;;;;;;;;;10510413;28;20032;-64
2021/09/10 14:59:02;;;;;;;0.00;0.00;;;;;;;;;;10492439;28;20052;-64
2021/09/10 15:04:06;;;;;;;0.00;0.00;;;;;;;;;;10510704;28;20103;-64
2021/09/10 15:09:12;;;;;;;0.00;0.00;;;;;;;;;;10508610;28;20044;-64
2021/09/10 15:14:17;;;;;;;0.00;0.00;;;;;;;;;;10510383;28;20051;-64
2021/09/10 15:19:20;;;;;;;0.00;0.00;;;;;;;;;;10511982;28;20490;-66
2021/09/10 15:24:26;;;;;;;0.00;0.00;;;;;;;;;;10493897;28;20044;-66
2021/09/10 15:29:29;;;;;;;0.00;0.00;;;;;;;;;;10512375;28;20078;-64
2021/09/10 15:34:35;;;;;;;0.00;0.00;;;;;;;;;;10512030;28;20537;-64
2021/09/10 15:39:39;;;;;;;0.00;0.00;;;;;;;;;;10510022;28;20043;-64
2021/09/10 15:44:42;;;;;;;0.00;0.00;;;;;;;;;;10492649;28;20052;-64
2021/09/10 15:49:46;;;;;;;0.00;0.00;;;;;;;;;;10513767;28;20052;-64
2021/09/10 15:54:50;;;;;;;0.00;0.00;;;;;;;;;;10511866;28;20050;-64
2021/09/10 15:59:53;;;;;;;0.00;0.00;;;;;;;;;;10512808;28;20040;-63
2021/09/10 16:04:56;;;;;;;0.00;0.00;;;;;;;;;;10503028;28;20050;-64
2021/09/10 16:10:01;;;;;;;0.00;0.00;;;;;;;;;;10525354;28;20066;-63
2021/09/10 16:15:04;;;;;;;0.00;0.00;;;;;;;;;;10490984;28;20505;-63
2021/09/10 16:20:09;;;;;;;0.00;0.00;;;;;;;;;;10511126;28;20506;-64
2021/09/10 16:25:14;;;;;;;0.00;0.00;;;;;;;;;;10507748;28;20421;-64
2021/09/10 16:30:18;;;;;;;0.00;0.00;;;;;;;;;;10498085;28;20048;-63
2021/09/10 16:35:23;;;;;;;0.00;0.00;;;;;;;;;;10509729;28;20710;-63
2021/09/10 16:40:28;;;;;;;0.10;0.00;;;;;;;;;;10510240;28;20071;-64
2021/09/10 16:45:31;;;;;;;0.00;0.00;;;;;;;;;;10509642;28;20067;-64
2021/09/10 16:50:36;;;;;;;0.00;0.00;;;;;;;;;;10511826;28;20517;-64
2021/09/10 16:56:04;;;;;;;0.00;0.00;;;;;;;;;;10509820;28;20070;-65
2021/09/10 17:01:09;;;;;;;0.00;0.00;;;;;;;;;;10507753;28;20063;-62
2021/09/10 17:06:12;;;;;;;0.03;0.00;;;;;;;;;;10509368;28;20052;-68
2021/09/10 17:11:15;;;;;;;0.03;0.00;;;;;;;;;;10509667;28;20047;-65
2021/09/10 17:16:19;;;;;;;0.00;0.00;;;;;;;;;;10505977;28;20032;-66
2021/09/10 17:21:22;;;;;;;0.00;0.00;;;;;;;;;;10514735;28;20048;-63
2021/09/10 17:26:26;;;;;;;0.00;0.00;;;;;;;;;;10515999;28;20044;-65
2021/09/10 17:31:30;;;;;;;0.00;0.00;;;;;;;;;;10500863;28;20051;-64
2021/09/10 17:36:33;;;;;;;0.00;0.00;;;;;;;;;;10516310;28;20193;-65
2021/09/10 17:41:37;;;;;;;0.00;0.00;;;;;;;;;;10516671;28;20500;-64
2021/09/10 17:46:41;;;;;;;0.00;0.00;;;;;;;;;;10516998;28;20777;-64
2021/09/10 17:51:45;;;;;;;0.00;0.00;;;;;;;;;;10514060;28;20129;-64
2021/09/10 17:56:48;;;;;;;0.00;0.00;;;;;;;;;;10532007;28;20051;-64
2021/09/10 18:01:52;;;;;;;0.00;0.00;;;;;;;;;;10518309;28;20493;-64
2021/09/10 18:06:55;;;;;;;0.00;0.00;;;;;;;;;;10500959;28;20554;-64
2021/09/10 18:11:58;;;;;;;0.00;0.00;;;;;;;;;;10496726;28;20047;-64
2021/09/10 18:17:02;;;;;;;0.00;0.00;;;;;;;;;;10513384;28;20050;-64
2021/09/10 18:22:05;;;;;;;0.05;0.00;;;;;;;;;;10511664;28;20063;-64
2021/09/10 18:27:07;;;;;;;0.00;0.00;;;;;;;;;;10497386;28;20052;-64
2021/09/10 18:32:12;;;;;;;0.00;0.00;;;;;;;;;;10514254;28;20433;-64
2021/09/10 18:37:14;;;;;;;0.00;0.00;;;;;;;;;;10514383;28;20044;-64
2021/09/10 18:42:17;;;;;;;0.00;0.00;;;;;;;;;;10514598;28;20522;-65
2021/09/10 18:47:21;;;;;;;0.00;0.00;;;;;;;;;;10514431;28;20048;-64
2021/09/10 18:52:24;;;;;;;0.00;0.00;;;;;;;;;;10496578;28;20422;-64
2021/09/10 18:57:27;;;;;;;0.00;0.00;;;;;;;;;;10515542;28;20066;-64
2021/09/10 19:02:31;;;;;;;0.00;0.00;;;;;;;;;;10513355;28;20177;-64
2021/09/10 19:07:35;;;;;;;0.00;0.00;;;;;;;;;;10513146;28;20039;-64
2021/09/10 19:12:40;;;;;;;0.00;0.00;;;;;;;;;;10511894;28;20058;-64
2021/09/10 19:17:45;;;;;;;0.00;0.00;;;;;;;;;;10511055;28;20044;-65
2021/09/10 19:22:48;;;;;;;0.00;0.00;;;;;;;;;;10493049;28;20487;-65
2021/09/10 19:27:51;;;;;;;0.00;0.00;;;;;;;;;;10495847;28;20822;-66
2021/09/10 19:32:55;;;;;;;0.00;0.00;;;;;;;;;;10512858;28;20052;-66
2021/09/10 19:37:58;;;;;;;0.00;0.00;;;;;;;;;;10511282;28;20044;-66
2021/09/10 19:43:01;;;;;;;0.00;0.00;;;;;;;;;;10513602;28;20409;-66
2021/09/10 19:48:05;;;;;;;0.00;0.00;;;;;;;;;;10511277;28;20513;-66
2021/09/10 19:53:08;;;;;;;0.00;0.00;;;;;;;;;;10509897;28;20414;-66
2021/09/10 19:58:11;;;;;;;0.00;0.00;;;;;;;;;;10508746;28;20401;-66
2021/09/10 20:03:15;;;;;;;0.00;0.00;;;;;;;;;;10509737;28;20051;-65
2021/09/10 20:08:18;;;;;;;0.00;0.00;;;;;;;;;;10511315;28;20040;-65
2021/09/10 20:13:21;;;;;;;0.00;0.00;;;;;;;;;;10510693;28;20143;-65
2021/09/10 20:18:25;;;;;;;0.00;0.00;;;;;;;;;;10523270;28;20139;-65
2021/09/10 20:23:28;;;;;;;0.00;0.00;;;;;;;;;;10511591;28;20040;-65
2021/09/10 20:28:30;;;;;;;0.00;0.00;;;;;;;;;;10510017;28;20457;-66
2021/09/10 20:33:35;;;;;;;0.00;0.00;;;;;;;;;;10513207;28;20040;-65
2021/09/10 20:38:38;;;;;;;0.00;0.00;;;;;;;;;;10512413;28;20050;-65
2021/09/10 20:43:40;;;;;;;0.00;0.00;;;;;;;;;;10511987;28;20102;-65
2021/09/10 20:48:45;;;;;;;0.10;0.00;;;;;;;;;;10512598;28;20050;-65
2021/09/10 20:53:48;;;;;;;0.00;0.00;;;;;;;;;;10510678;28;20070;-65
2021/09/10 20:58:51;;;;;;;0.00;0.00;;;;;;;;;;10506597;28;20044;-65
2021/09/10 21:03:55;;;;;;;0.00;0.00;;;;;;;;;;10516032;28;20048;-65
2021/09/10 21:08:58;;;;;;;0.00;0.00;;;;;;;;;;10505618;28;20410;-65
2021/09/10 21:14:01;;;;;;;0.00;0.00;;;;;;;;;;10519349;28;20494;-66
2021/09/10 21:19:06;;;;;;;0.00;0.00;;;;;;;;;;10502394;28;20047;-66
2021/09/10 21:24:09;;;;;;;0.00;0.00;;;;;;;;;;10519520;28;20048;-66
2021/09/10 21:29:11;;;;;;;0.00;0.00;;;;;;;;;;10520873;28;20062;-66
2021/09/10 21:34:32;;;;;;;0.00;0.00;;;;;;;;;;10529544;28;20048;-66
2021/09/10 21:39:35;;;;;;;0.00;0.00;;;;;;;;;;10497901;28;20048;-66
2021/09/10 21:44:38;;;;;;;0.00;0.00;;;;;;;;;;10502851;28;20044;-66
2021/09/10 21:49:42;;;;;;;0.00;0.00;;;;;;;;;;10518081;28;20070;-66
2021/09/10 21:54:47;;;;;;;0.00;0.00;;;;;;;;;;10517221;28;20044;-66
2021/09/10 21:59:50;;;;;;;0.00;0.00;;;;;;;;;;10518327;28;20058;-65
2021/09/10 22:04:54;;;;;;;0.00;0.00;;;;;;;;;;10515234;28;20043;-65
2021/09/10 22:09:57;;;;;;;0.00;0.00;;;;;;;;;;10514615;28;20064;-66
2021/09/10 22:15:00;;;;;;;0.00;0.00;;;;;;;;;;10517231;28;20820;-66
2021/09/10 22:20:05;;;;;;;0.00;0.00;;;;;;;;;;10517087;28;20040;-66
2021/09/10 22:25:08;;;;;;;0.00;0.00;;;;;;;;;;10517845;28;20398;-66
2021/09/10 22:30:12;;;;;;;0.00;0.00;;;;;;;;;;10518591;28;20044;-66
2021/09/10 22:35:16;;;;;;;0.00;0.00;;;;;;;;;;10516564;28;20051;-66
2021/09/10 22:40:19;;;;;;;0.00;0.00;;;;;;;;;;10511504;28;20044;-66
2021/09/10 22:45:21;;;;;;;0.00;0.00;;;;;;;;;;10516174;28;20044;-66
2021/09/10 22:50:27;;;;;;;0.00;0.00;;;;;;;;;;10516041;28;20048;-66
2021/09/10 22:55:29;;;;;;;0.00;0.00;;;;;;;;;;10517401;28;20693;-66
2021/09/10 23:00:33;;;;;;;0.00;0.00;;;;;;;;;;10498973;28;20040;-66
2021/09/10 23:05:37;;;;;;;0.00;0.00;;;;;;;;;;10500633;28;20071;-66
2021/09/10 23:10:40;;;;;;;0.00;0.00;;;;;;;;;;10514136;28;20090;-66
2021/09/10 23:15:43;;;;;;;0.00;0.00;;;;;;;;;;10514110;28;20409;-66
2021/09/10 23:20:47;;;;;;;0.08;0.00;;;;;;;;;;10519950;28;20052;-66
2021/09/10 23:25:50;;;;;;;0.00;0.00;;;;;;;;;;10515349;28;20047;-66
2021/09/10 23:30:53;;;;;;;0.00;0.00;;;;;;;;;;10516848;28;20059;-66
2021/09/10 23:35:57;;;;;;;0.00;0.00;;;;;;;;;;10514237;28;20036;-66
2021/09/10 23:41:00;;;;;;;0.00;0.00;;;;;;;;;;10510672;28;20051;-66
2021/09/10 23:46:02;;;;;;;0.00;0.00;;;;;;;;;;10514277;28;20040;-66
2021/09/10 23:51:07;;;;;;;0.00;0.00;;;;;;;;;;10512178;28;20054;-66
2021/09/10 23:56:10;;;;;;;0.00;0.00;;;;;;;;;;10513226;28;20155;-66
